sensor_id;sensor_type;location;lat;lon;timestamp;pressure;altitude;pressure_sealevel;temperature;humidity
64158;BME280;50449;51.528;5.076;2023-02-18T00:01:28;102169.50;;;12.56;71.20
64158;BME280;50449;51.528;5.076;2023-02-18T00:03:56;102169.50;;;12.56;71.01
64158;BME280;50449;51.528;5.076;2023-02-18T00:06:22;102175.75;;;12.57;71.45
64158;BME280;50449;51.528;5.076;2023-02-18T00:08:49;102180.34;;;12.56;71.37
64158;BME280;50449;51.528;5.076;2023-02-18T00:11:16;102174.91;;;12.56;71.11
64158;BME280;50449;51.528;5.076;2023-02-18T00:13:41;102166.78;;;12.56;71.41
64158;BME280;50449;51.528;5.076;2023-02-18T00:16:09;102160.34;;;12.58;71.08
64158;BME280;50449;51.528;5.076;2023-02-18T00:18:35;102165.97;;;12.56;71.17
64158;BME280;50449;51.528;5.076;2023-02-18T00:21:03;102151.59;;;12.55;71.39
64158;BME280;50449;51.528;5.076;2023-02-18T00:23:29;102161.59;;;12.55;71.10
64158;BME280;50449;51.528;5.076;2023-02-18T00:26:06;102165.34;;;12.54;71.23
64158;BME280;50449;51.528;5.076;2023-02-18T00:28:32;102150.16;;;12.53;71.42
64158;BME280;50449;51.528;5.076;2023-02-18T00:30:58;102143.91;;;12.52;71.27
64158;BME280;50449;51.528;5.076;2023-02-18T00:33:23;102152.03;;;12.52;71.31
64158;BME280;50449;51.528;5.076;2023-02-18T00:35:49;102140.13;;;12.53;71.54
64158;BME280;50449;51.528;5.076;2023-02-18T00:38:15;102125.75;;;12.53;71.10
64158;BME280;50449;51.528;5.076;2023-02-18T00:40:41;102126.78;;;12.52;71.14
64158;BME280;50449;51.528;5.076;2023-02-18T00:43:09;102131.19;;;12.53;71.58
64158;BME280;50449;51.528;5.076;2023-02-18T00:45:34;102118.66;;;12.52;71.29
64158;BME280;50449;51.528;5.076;2023-02-18T00:48:00;102124.94;;;12.52;71.18
64158;BME280;50449;51.528;5.076;2023-02-18T00:50:25;102120.53;;;12.51;71.67
64158;BME280;50449;51.528;5.076;2023-02-18T00:52:53;102112.41;;;12.51;71.46
64158;BME280;50449;51.528;5.076;2023-02-18T00:55:19;102117.84;;;12.51;71.37
64158;BME280;50449;51.528;5.076;2023-02-18T00:57:44;102114.31;;;12.51;71.55
64158;BME280;50449;51.528;5.076;2023-02-18T01:00:10;102108.06;;;12.50;71.29
64158;BME280;50449;51.528;5.076;2023-02-18T01:02:35;102106.38;;;12.49;71.39
64158;BME280;50449;51.528;5.076;2023-02-18T01:05:01;102106.38;;;12.49;71.41
64158;BME280;50449;51.528;5.076;2023-02-18T01:07:27;102107.25;;;12.50;71.57
64158;BME280;50449;51.528;5.076;2023-02-18T01:09:52;102101.81;;;12.50;71.45
64158;BME280;50449;51.528;5.076;2023-02-18T01:12:17;102110.78;;;12.50;71.28
64158;BME280;50449;51.528;5.076;2023-02-18T01:14:43;102099.94;;;12.50;71.61
64158;BME280;50449;51.528;5.076;2023-02-18T01:17:09;102103.66;;;12.49;71.64
64158;BME280;50449;51.528;5.076;2023-02-18T01:19:34;102092.81;;;12.49;71.41
64158;BME280;50449;51.528;5.076;2023-02-18T01:22:00;102088.47;;;12.48;71.61
64158;BME280;50449;51.528;5.076;2023-02-18T01:24:25;102085.75;;;12.48;71.65
64158;BME280;50449;51.528;5.076;2023-02-18T01:26:50;102094.72;;;12.49;71.33
64158;BME280;50449;51.528;5.076;2023-02-18T01:29:16;102093.06;;;12.48;71.58
64158;BME280;50449;51.528;5.076;2023-02-18T01:31:41;102085.75;;;12.48;71.51
64158;BME280;50449;51.528;5.076;2023-02-18T01:34:07;102083.88;;;12.49;71.58
64158;BME280;50449;51.528;5.076;2023-02-18T01:36:33;102092.81;;;12.49;71.72
64158;BME280;50449;51.528;5.076;2023-02-18T01:38:58;102089.28;;;12.49;71.56
64158;BME280;50449;51.528;5.076;2023-02-18T01:41:24;102077.44;;;12.50;71.62
64158;BME280;50449;51.528;5.076;2023-02-18T01:44:10;102079.28;;;12.49;71.81
64158;BME280;50449;51.528;5.076;2023-02-18T01:46:35;102072.00;;;12.50;71.45
64158;BME280;50449;51.528;5.076;2023-02-18T01:49:01;102077.44;;;12.50;71.56
64158;BME280;50449;51.528;5.076;2023-02-18T01:51:33;102069.28;;;12.50;71.40
64158;BME280;50449;51.528;5.076;2023-02-18T01:54:10;102074.72;;;12.50;71.55
64158;BME280;50449;51.528;5.076;2023-02-18T01:56:48;102073.84;;;12.49;71.61
64158;BME280;50449;51.528;5.076;2023-02-18T01:59:23;102077.44;;;12.50;71.74
64158;BME280;50449;51.528;5.076;2023-02-18T02:01:50;102066.78;;;12.48;71.35
64158;BME280;50449;51.528;5.076;2023-02-18T02:04:16;102061.16;;;12.50;71.36
64158;BME280;50449;51.528;5.076;2023-02-18T02:06:42;102065.72;;;12.49;71.50
64158;BME280;50449;51.528;5.076;2023-02-18T02:09:10;102060.31;;;12.49;71.42
64158;BME280;50449;51.528;5.076;2023-02-18T02:17:58;102048.88;;;12.47;71.50
64158;BME280;50449;51.528;5.076;2023-02-18T02:23:44;102045.31;;;12.47;71.48
64158;BME280;50449;51.528;5.076;2023-02-18T02:37:45;102009.50;;;12.45;71.52
64158;BME280;50449;51.528;5.076;2023-02-18T02:41:16;102004.09;;;12.45;71.81
64158;BME280;50449;51.528;5.076;2023-02-18T02:51:27;101998.88;;;12.43;71.70
64158;BME280;50449;51.528;5.076;2023-02-18T02:53:53;101997.00;;;12.44;71.81
64158;BME280;50449;51.528;5.076;2023-02-18T02:56:23;101989.69;;;12.44;71.85
64158;BME280;50449;51.528;5.076;2023-02-18T02:58:58;101986.97;;;12.44;71.77
64158;BME280;50449;51.528;5.076;2023-02-18T03:06:53;101975.94;;;12.46;71.84
64158;BME280;50449;51.528;5.076;2023-02-18T03:12:18;101961.31;;;12.47;71.57
64158;BME280;50449;51.528;5.076;2023-02-18T03:14:58;101961.31;;;12.47;71.88
64158;BME280;50449;51.528;5.076;2023-02-18T03:17:36;101955.06;;;12.46;71.66
64158;BME280;50449;51.528;5.076;2023-02-18T03:20:09;101945.06;;;12.47;71.52
64158;BME280;50449;51.528;5.076;2023-02-18T03:22:45;101940.69;;;12.46;71.75
64158;BME280;50449;51.528;5.076;2023-02-18T03:25:12;101931.50;;;12.47;71.93
64158;BME280;50449;51.528;5.076;2023-02-18T03:27:49;101930.69;;;12.46;71.89
64158;BME280;50449;51.528;5.076;2023-02-18T03:30:22;101919.03;;;12.46;71.87
64158;BME280;50449;51.528;5.076;2023-02-18T03:32:51;101922.56;;;12.46;71.58
64158;BME280;50449;51.528;5.076;2023-02-18T03:35:20;101926.09;;;12.47;71.43
64158;BME280;50449;51.528;5.076;2023-02-18T03:38:03;101920.91;;;12.45;71.59
64158;BME280;50449;51.528;5.076;2023-02-18T03:40:31;101913.59;;;12.46;71.49
64158;BME280;50449;51.528;5.076;2023-02-18T03:42:58;101917.38;;;12.45;71.60
64158;BME280;50449;51.528;5.076;2023-02-18T03:45:24;101902.16;;;12.44;71.47
64158;BME280;50449;51.528;5.076;2023-02-18T03:47:50;101902.16;;;12.44;71.54
64158;BME280;50449;51.528;5.076;2023-02-18T03:50:15;101900.25;;;12.44;71.71
64158;BME280;50449;51.528;5.076;2023-02-18T03:52:41;101909.25;;;12.45;71.54
64158;BME280;50449;51.528;5.076;2023-02-18T03:55:06;101902.16;;;12.44;71.66
64158;BME280;50449;51.528;5.076;2023-02-18T03:57:33;101900.50;;;12.43;71.88
64158;BME280;50449;51.528;5.076;2023-02-18T03:59:58;101896.94;;;12.42;71.72
64158;BME280;50449;51.528;5.076;2023-02-18T04:02:24;101897.81;;;12.43;71.65
64158;BME280;50449;51.528;5.076;2023-02-18T04:04:49;101894.84;;;12.44;71.75
64158;BME280;50449;51.528;5.076;2023-02-18T04:07:15;101888.81;;;12.42;71.66
64158;BME280;50449;51.528;5.076;2023-02-18T04:09:40;101888.00;;;12.42;71.58
64158;BME280;50449;51.528;5.076;2023-02-18T04:12:05;101886.09;;;12.42;71.69
64158;BME280;50449;51.528;5.076;2023-02-18T04:14:31;101883.41;;;12.42;71.75
64158;BME280;50449;51.528;5.076;2023-02-18T04:16:56;101886.09;;;12.42;71.53
64158;BME280;50449;51.528;5.076;2023-02-18T04:19:22;101890.72;;;12.42;71.80
64158;BME280;50449;51.528;5.076;2023-02-18T04:21:47;101882.81;;;12.40;71.80
64158;BME280;50449;51.528;5.076;2023-02-18T04:24:13;101882.22;;;12.38;71.67
64158;BME280;50449;51.528;5.076;2023-02-18T04:26:38;101881.16;;;12.39;71.76
64158;BME280;50449;51.528;5.076;2023-02-18T04:29:04;101876.78;;;12.38;71.90
64158;BME280;50449;51.528;5.076;2023-02-18T04:31:29;101878.69;;;12.38;71.94
64158;BME280;50449;51.528;5.076;2023-02-18T04:33:54;101879.50;;;12.38;71.56
64158;BME280;50449;51.528;5.076;2023-02-18T04:36:20;101874.09;;;12.38;71.59
64158;BME280;50449;51.528;5.076;2023-02-18T04:38:45;101873.28;;;12.38;71.67
64158;BME280;50449;51.528;5.076;2023-02-18T04:41:11;101872.41;;;12.37;71.61
64158;BME280;50449;51.528;5.076;2023-02-18T04:43:39;101878.91;;;12.36;72.02
64158;BME280;50449;51.528;5.076;2023-02-18T04:46:04;101861.00;;;12.35;71.64
64158;BME280;50449;51.528;5.076;2023-02-18T04:48:30;101874.56;;;12.35;71.93
64158;BME280;50449;51.528;5.076;2023-02-18T04:50:55;101867.47;;;12.34;71.70
64158;BME280;50449;51.528;5.076;2023-02-18T04:53:21;101875.59;;;12.34;71.92
64158;BME280;50449;51.528;5.076;2023-02-18T04:55:50;101870.16;;;12.34;71.69
64158;BME280;50449;51.528;5.076;2023-02-18T04:58:16;101859.56;;;12.32;71.81
64158;BME280;50449;51.528;5.076;2023-02-18T05:00:42;101858.50;;;12.33;71.66
64158;BME280;50449;51.528;5.076;2023-02-18T05:03:07;101847.88;;;12.32;71.59
64158;BME280;50449;51.528;5.076;2023-02-18T05:05:33;101836.22;;;12.31;71.81
64158;BME280;50449;51.528;5.076;2023-02-18T05:07:58;101845.19;;;12.32;71.93
64158;BME280;50449;51.528;5.076;2023-02-18T05:10:23;101832.69;;;12.31;72.06
64158;BME280;50449;51.528;5.076;2023-02-18T05:12:49;101846.47;;;12.29;72.01
64158;BME280;50449;51.528;5.076;2023-02-18T05:15:14;101835.63;;;12.29;71.87
64158;BME280;50449;51.528;5.076;2023-02-18T05:17:40;101838.56;;;12.28;71.94
64158;BME280;50449;51.528;5.076;2023-02-18T05:20:06;101825.63;;;12.30;71.86
64158;BME280;50449;51.528;5.076;2023-02-18T05:22:32;101828.56;;;12.28;71.82
64158;BME280;50449;51.528;5.076;2023-02-18T05:24:57;101809.59;;;12.28;71.91
64158;BME280;50449;51.528;5.076;2023-02-18T05:27:22;101821.50;;;12.27;71.63
64158;BME280;50449;51.528;5.076;2023-02-18T05:29:48;101821.72;;;12.26;71.70
64158;BME280;50449;51.528;5.076;2023-02-18T05:32:13;101819.81;;;12.26;72.14
64158;BME280;50449;51.528;5.076;2023-02-18T05:34:39;101831.47;;;12.27;71.77
64158;BME280;50449;51.528;5.076;2023-02-18T05:37:04;101826.06;;;12.27;71.77
64158;BME280;50449;51.528;5.076;2023-02-18T05:39:30;101833.38;;;12.26;72.10
64158;BME280;50449;51.528;5.076;2023-02-18T05:41:55;101843.38;;;12.26;71.90
64158;BME280;50449;51.528;5.076;2023-02-18T05:44:20;101834.44;;;12.25;71.94
64158;BME280;50449;51.528;5.076;2023-02-18T05:46:56;101828.19;;;12.25;71.75
64158;BME280;50449;51.528;5.076;2023-02-18T05:49:22;101820.06;;;12.25;71.83
64158;BME280;50449;51.528;5.076;2023-02-18T05:51:48;101826.31;;;12.25;71.87
64158;BME280;50449;51.528;5.076;2023-02-18T05:54:13;101820.06;;;12.25;72.05
64158;BME280;50449;51.528;5.076;2023-02-18T05:56:39;101818.41;;;12.24;71.83
64158;BME280;50449;51.528;5.076;2023-02-18T05:59:04;101802.97;;;12.24;72.01
64158;BME280;50449;51.528;5.076;2023-02-18T06:01:29;101800.25;;;12.24;71.91
64158;BME280;50449;51.528;5.076;2023-02-18T06:03:55;101797.78;;;12.23;71.94
64158;BME280;50449;51.528;5.076;2023-02-18T06:06:20;101790.72;;;12.22;71.72
64158;BME280;50449;51.528;5.076;2023-02-18T06:08:46;101794.47;;;12.21;71.99
64158;BME280;50449;51.528;5.076;2023-02-18T06:11:11;101800.97;;;12.20;71.81
64158;BME280;50449;51.528;5.076;2023-02-18T06:13:37;101799.09;;;12.20;71.77
64158;BME280;50449;51.528;5.076;2023-02-18T06:16:02;101791.78;;;12.21;72.10
64158;BME280;50449;51.528;5.076;2023-02-18T06:18:28;101784.47;;;12.21;72.01
64158;BME280;50449;51.528;5.076;2023-02-18T06:20:53;101770.09;;;12.21;71.94
64158;BME280;50449;51.528;5.076;2023-02-18T06:23:19;101790.13;;;12.20;72.12
64158;BME280;50449;51.528;5.076;2023-02-18T06:25:44;101787.44;;;12.20;71.87
64158;BME280;50449;51.528;5.076;2023-02-18T06:28:12;101790.56;;;12.17;71.92
64158;BME280;50449;51.528;5.076;2023-02-18T06:30:37;101795.97;;;12.17;71.71
64158;BME280;50449;51.528;5.076;2023-02-18T06:33:03;101800.38;;;12.18;71.88
64158;BME280;50449;51.528;5.076;2023-02-18T06:35:29;101803.28;;;12.16;72.45
64158;BME280;50449;51.528;5.076;2023-02-18T06:37:54;101797.06;;;12.16;71.84
64158;BME280;50449;51.528;5.076;2023-02-18T06:40:20;101801.66;;;12.15;72.01
64158;BME280;50449;51.528;5.076;2023-02-18T06:42:45;101798.13;;;12.15;71.77
64158;BME280;50449;51.528;5.076;2023-02-18T06:45:10;101806.25;;;12.15;71.91
64158;BME280;50449;51.528;5.076;2023-02-18T06:47:36;101797.25;;;12.14;71.85
64158;BME280;50449;51.528;5.076;2023-02-18T06:50:02;101806.47;;;12.13;72.18
64158;BME280;50449;51.528;5.076;2023-02-18T06:52:28;101797.25;;;12.14;72.07
64158;BME280;50449;51.528;5.076;2023-02-18T06:54:55;101797.50;;;12.12;72.12
64158;BME280;50449;51.528;5.076;2023-02-18T06:57:20;101804.56;;;12.13;72.14
64158;BME280;50449;51.528;5.076;2023-02-18T06:59:45;101806.47;;;12.13;71.80
64158;BME280;50449;51.528;5.076;2023-02-18T07:02:12;101805.63;;;12.12;72.00
64158;BME280;50449;51.528;5.076;2023-02-18T07:04:37;101797.50;;;12.12;71.83
64158;BME280;50449;51.528;5.076;2023-02-18T07:07:03;101803.97;;;12.11;71.85
64158;BME280;50449;51.528;5.076;2023-02-18T07:09:28;101803.16;;;12.11;71.82
64158;BME280;50449;51.528;5.076;2023-02-18T07:11:53;101797.50;;;12.12;71.96
64158;BME280;50449;51.528;5.076;2023-02-18T07:14:19;101804.22;;;12.10;72.02
64158;BME280;50449;51.528;5.076;2023-02-18T07:16:44;101796.91;;;12.10;72.04
64158;BME280;50449;51.528;5.076;2023-02-18T07:19:10;101799.63;;;12.10;71.79
64158;BME280;50449;51.528;5.076;2023-02-18T07:21:35;101804.22;;;12.10;71.98
64158;BME280;50449;51.528;5.076;2023-02-18T07:24:00;101811.47;;;12.09;71.96
64158;BME280;50449;51.528;5.076;2023-02-18T07:26:26;101801.50;;;12.10;71.84
64158;BME280;50449;51.528;5.076;2023-02-18T07:28:51;101812.34;;;12.10;71.81
64158;BME280;50449;51.528;5.076;2023-02-18T07:31:16;101816.06;;;12.09;71.53
64158;BME280;50449;51.528;5.076;2023-02-18T07:33:42;101827.72;;;12.09;71.79
64158;BME280;50449;51.528;5.076;2023-02-18T07:36:08;101843.16;;;12.09;71.65
64158;BME280;50449;51.528;5.076;2023-02-18T07:38:33;101840.69;;;12.07;71.65
64158;BME280;50449;51.528;5.076;2023-02-18T07:40:59;101832.56;;;12.07;71.69
64158;BME280;50449;51.528;5.076;2023-02-18T07:43:24;101837.13;;;12.07;71.79
64158;BME280;50449;51.528;5.076;2023-02-18T07:45:49;101846.94;;;12.08;71.98
64158;BME280;50449;51.528;5.076;2023-02-18T07:48:15;101845.50;;;12.05;71.73
64158;BME280;50449;51.528;5.076;2023-02-18T07:50:42;101842.78;;;12.05;71.64
64158;BME280;50449;51.528;5.076;2023-02-18T07:53:10;101838.41;;;12.04;71.71
64158;BME280;50449;51.528;5.076;2023-02-18T07:55:36;101832.41;;;12.02;71.59
64158;BME280;50449;51.528;5.076;2023-02-18T08:01:12;101828.50;;;11.98;71.77
64158;BME280;50449;51.528;5.076;2023-02-18T08:03:39;101836.63;;;11.98;71.44
64158;BME280;50449;51.528;5.076;2023-02-18T08:06:05;101835.81;;;11.98;71.75
64158;BME280;50449;51.528;5.076;2023-02-18T08:08:31;101826.00;;;11.97;71.54
64158;BME280;50449;51.528;5.076;2023-02-18T08:10:59;101832.28;;;11.97;71.83
64158;BME280;50449;51.528;5.076;2023-02-18T08:13:27;101818.13;;;11.95;71.78
64158;BME280;50449;51.528;5.076;2023-02-18T08:15:57;101825.19;;;11.96;71.58
64158;BME280;50449;51.528;5.076;2023-02-18T08:18:24;101821.66;;;11.96;71.52
64158;BME280;50449;51.528;5.076;2023-02-18T08:20:50;101824.34;;;11.96;71.87
64158;BME280;50449;51.528;5.076;2023-02-18T08:23:21;101828.72;;;11.97;71.61
64158;BME280;50449;51.528;5.076;2023-02-18T08:25:51;101812.47;;;11.97;71.62
64158;BME280;50449;51.528;5.076;2023-02-18T08:28:17;101815.41;;;11.95;71.58
64158;BME280;50449;51.528;5.076;2023-02-18T08:30:47;101813.75;;;11.94;71.61
64158;BME280;50449;51.528;5.076;2023-02-18T08:33:13;101824.56;;;11.94;71.39
64158;BME280;50449;51.528;5.076;2023-02-18T08:35:39;101836.25;;;11.95;71.70
64158;BME280;50449;51.528;5.076;2023-02-18T08:38:05;101839.19;;;11.93;71.75
64158;BME280;50449;51.528;5.076;2023-02-18T08:40:30;101840.00;;;11.94;71.65
64158;BME280;50449;51.528;5.076;2023-02-18T08:42:56;101833.53;;;11.95;71.55
64158;BME280;50449;51.528;5.076;2023-02-18T08:45:21;101826.47;;;11.94;71.71
64158;BME280;50449;51.528;5.076;2023-02-18T08:47:46;101823.75;;;11.94;71.71
64158;BME280;50449;51.528;5.076;2023-02-18T08:50:12;101819.16;;;11.94;71.37
64158;BME280;50449;51.528;5.076;2023-02-18T08:52:37;101827.28;;;11.94;71.58
64158;BME280;50449;51.528;5.076;2023-02-18T08:55:04;101826.47;;;11.94;71.62
64158;BME280;50449;51.528;5.076;2023-02-18T08:57:29;101831.88;;;11.94;71.75
64158;BME280;50449;51.528;5.076;2023-02-18T08:59:55;101830.22;;;11.93;71.57
64158;BME280;50449;51.528;5.076;2023-02-18T09:02:20;101831.25;;;11.91;71.34
64158;BME280;50449;51.528;5.076;2023-02-18T09:04:46;101835.88;;;11.91;71.19
64158;BME280;50449;51.528;5.076;2023-02-18T09:07:12;101835.88;;;11.91;71.35
64158;BME280;50449;51.528;5.076;2023-02-18T09:09:37;101833.16;;;11.91;71.29
64158;BME280;50449;51.528;5.076;2023-02-18T09:12:03;101828.56;;;11.91;71.26
64158;BME280;50449;51.528;5.076;2023-02-18T09:14:28;101842.09;;;11.91;71.47
64158;BME280;50449;51.528;5.076;2023-02-18T09:16:55;101866.72;;;11.90;71.32
64158;BME280;50449;51.528;5.076;2023-02-18T09:19:21;101843.16;;;11.90;71.33
64158;BME280;50449;51.528;5.076;2023-02-18T09:21:46;101843.38;;;11.89;71.28
64158;BME280;50449;51.528;5.076;2023-02-18T09:24:12;101847.16;;;11.88;71.39
64158;BME280;50449;51.528;5.076;2023-02-18T09:26:37;101857.97;;;11.88;71.25
64158;BME280;50449;51.528;5.076;2023-02-18T09:29:03;101853.38;;;11.88;71.19
64158;BME280;50449;51.528;5.076;2023-02-18T09:31:28;101840.91;;;11.87;71.37
64158;BME280;50449;51.528;5.076;2023-02-18T09:33:56;101852.34;;;11.89;71.25
64158;BME280;50449;51.528;5.076;2023-02-18T09:36:22;101856.91;;;11.89;71.26
64158;BME280;50449;51.528;5.076;2023-02-18T09:38:48;101858.78;;;11.88;71.16
64158;BME280;50449;51.528;5.076;2023-02-18T09:41:28;101855.28;;;11.88;71.57
64158;BME280;50449;51.528;5.076;2023-02-18T09:43:58;101844.44;;;11.88;71.25
64158;BME280;50449;51.528;5.076;2023-02-18T09:46:30;101862.31;;;11.89;71.29
64158;BME280;50449;51.528;5.076;2023-02-18T09:48:57;101846.31;;;11.87;71.20
64158;BME280;50449;51.528;5.076;2023-02-18T09:51:25;101848.22;;;11.87;71.14
64158;BME280;50449;51.528;5.076;2023-02-18T09:53:51;101860.91;;;11.86;71.17
64158;BME280;50449;51.528;5.076;2023-02-18T09:56:24;101853.81;;;11.85;71.21
64158;BME280;50449;51.528;5.076;2023-02-18T09:58:51;101856.34;;;11.87;71.23
64158;BME280;50449;51.528;5.076;2023-02-18T10:01:30;101866.31;;;11.86;71.26
64158;BME280;50449;51.528;5.076;2023-02-18T10:03:59;101866.53;;;11.85;71.33
64158;BME280;50449;51.528;5.076;2023-02-18T10:06:32;101875.28;;;11.87;71.54
64158;BME280;50449;51.528;5.076;2023-02-18T10:09:04;101867.97;;;11.87;71.39
64158;BME280;50449;51.528;5.076;2023-02-18T10:11:39;101859.88;;;11.87;71.30
64158;BME280;50449;51.528;5.076;2023-02-18T10:14:10;101870.69;;;11.87;71.15
64158;BME280;50449;51.528;5.076;2023-02-18T10:16:36;101857.16;;;11.87;71.15
64158;BME280;50449;51.528;5.076;2023-02-18T10:19:33;101871.50;;;11.88;71.33
64158;BME280;50449;51.528;5.076;2023-02-18T10:22:03;101873.56;;;11.86;71.06
64158;BME280;50449;51.528;5.076;2023-02-18T10:24:32;101877.34;;;11.85;70.91
64158;BME280;50449;51.528;5.076;2023-02-18T10:27:00;101876.28;;;11.86;71.34
64158;BME280;50449;51.528;5.076;2023-02-18T10:29:28;101886.28;;;11.85;70.71
64158;BME280;50449;51.528;5.076;2023-02-18T10:35:19;101889.81;;;11.86;70.96
64158;BME280;50449;51.528;5.076;2023-02-18T10:45:23;101894.25;;;11.87;70.94
64158;BME280;50449;51.528;5.076;2023-02-18T10:50:44;101898.59;;;11.88;71.05
64158;BME280;50449;51.528;5.076;2023-02-18T10:55:45;101890.47;;;11.88;71.29
64158;BME280;50449;51.528;5.076;2023-02-18T11:00:49;101909.22;;;11.89;70.95
64158;BME280;50449;51.528;5.076;2023-02-18T11:03:18;101914.63;;;11.89;71.10
64158;BME280;50449;51.528;5.076;2023-02-18T11:05:45;101901.09;;;11.89;71.06
64158;BME280;50449;51.528;5.076;2023-02-18T11:08:23;101910.03;;;11.90;71.10
64158;BME280;50449;51.528;5.076;2023-02-18T11:10:50;101921.69;;;11.90;71.06
64158;BME280;50449;51.528;5.076;2023-02-18T11:13:27;101913.56;;;11.90;71.04
64158;BME280;50449;51.528;5.076;2023-02-18T11:16:01;101913.34;;;11.92;71.11
64158;BME280;50449;51.528;5.076;2023-02-18T11:18:34;101907.94;;;11.92;71.11
64158;BME280;50449;51.528;5.076;2023-02-18T11:21:03;101900.84;;;11.91;71.18
64158;BME280;50449;51.528;5.076;2023-02-18T11:23:29;101911.66;;;11.91;71.09
64158;BME280;50449;51.528;5.076;2023-02-18T11:26:06;101901.91;;;11.90;71.13
64158;BME280;50449;51.528;5.076;2023-02-18T11:31:28;101913.56;;;11.90;71.28
64158;BME280;50449;51.528;5.076;2023-02-18T11:33:58;101904.38;;;11.91;71.15
64158;BME280;50449;51.528;5.076;2023-02-18T11:36:32;101897.09;;;11.92;71.01
64158;BME280;50449;51.528;5.076;2023-02-18T11:39:06;101896.84;;;11.94;70.83
64158;BME280;50449;51.528;5.076;2023-02-18T11:41:42;101917.69;;;11.93;71.11
64158;BME280;50449;51.528;5.076;2023-02-18T11:47:06;101900.38;;;11.94;71.39
64158;BME280;50449;51.528;5.076;2023-02-18T11:49:43;101905.81;;;11.94;71.16
64158;BME280;50449;51.528;5.076;2023-02-18T11:52:18;101909.38;;;11.95;71.24
64158;BME280;50449;51.528;5.076;2023-02-18T11:55:04;101901.00;;;11.96;71.12
64158;BME280;50449;51.528;5.076;2023-02-18T11:57:31;101899.13;;;11.97;71.19
64158;BME280;50449;51.528;5.076;2023-02-18T11:59:59;101889.97;;;11.98;71.02
64158;BME280;50449;51.528;5.076;2023-02-18T12:02:31;101872.66;;;11.99;71.13
64158;BME280;50449;51.528;5.076;2023-02-18T12:05:24;101888.91;;;11.99;71.20
64158;BME280;50449;51.528;5.076;2023-02-18T12:07:55;101881.59;;;11.99;71.26
64158;BME280;50449;51.528;5.076;2023-02-18T12:10:33;101885.16;;;12.00;71.26
64158;BME280;50449;51.528;5.076;2023-02-18T12:13:20;101879.50;;;12.01;71.14
64158;BME280;50449;51.528;5.076;2023-02-18T12:26:29;101882.34;;;12.06;71.11
64158;BME280;50449;51.528;5.076;2023-02-18T12:34:26;101862.94;;;12.09;71.36
64158;BME280;50449;51.528;5.076;2023-02-18T12:56:00;101872.22;;;12.20;71.30
64158;BME280;50449;51.528;5.076;2023-02-18T12:58:54;101877.63;;;12.20;71.24
64158;BME280;50449;51.528;5.076;2023-02-18T13:07:17;101870.13;;;12.22;71.26
64158;BME280;50449;51.528;5.076;2023-02-18T13:15:27;101886.72;;;12.26;71.14
64158;BME280;50449;51.528;5.076;2023-02-18T13:17:57;101885.91;;;12.25;71.25
64158;BME280;50449;51.528;5.076;2023-02-18T13:22:59;101875.69;;;12.27;71.17
64158;BME280;50449;51.528;5.076;2023-02-18T13:25:24;101877.31;;;12.28;71.10
64158;BME280;50449;51.528;5.076;2023-02-18T13:28:03;101877.13;;;12.30;71.43
64158;BME280;50449;51.528;5.076;2023-02-18T13:41:34;101868.88;;;12.37;71.12
64158;BME280;50449;51.528;5.076;2023-02-18T13:44:00;101861.38;;;12.39;71.38
64158;BME280;50449;51.528;5.076;2023-02-18T13:46:25;101874.91;;;12.39;71.35
64158;BME280;50449;51.528;5.076;2023-02-18T13:49:04;101873.63;;;12.41;71.24
64158;BME280;50449;51.528;5.076;2023-02-18T13:51:44;101874.44;;;12.42;71.41
64158;BME280;50449;51.528;5.076;2023-02-18T13:56:39;101868.81;;;12.43;71.15
64158;BME280;50449;51.528;5.076;2023-02-18T13:59:16;101861.28;;;12.45;71.20
64158;BME280;50449;51.528;5.076;2023-02-18T14:10:04;101863.53;;;12.48;71.09
64158;BME280;50449;51.528;5.076;2023-02-18T14:18:07;101866.19;;;12.55;71.32
64158;BME280;50449;51.528;5.076;2023-02-18T14:26:07;101865.09;;;12.56;71.22
64158;BME280;50449;51.528;5.076;2023-02-18T14:31:01;101863.81;;;12.59;70.91
64158;BME280;50449;51.528;5.076;2023-02-18T14:33:34;101870.88;;;12.60;71.11
64158;BME280;50449;51.528;5.076;2023-02-18T14:41:41;101874.81;;;12.64;71.36
64158;BME280;50449;51.528;5.076;2023-02-18T14:44:39;101870.22;;;12.64;71.15
64158;BME280;50449;51.528;5.076;2023-02-18T14:47:47;101874.34;;;12.67;71.33
64158;BME280;50449;51.528;5.076;2023-02-18T14:50:20;101879.75;;;12.67;70.99
64158;BME280;50449;51.528;5.076;2023-02-18T14:52:48;101870.59;;;12.68;71.34
64158;BME280;50449;51.528;5.076;2023-02-18T14:55:22;101873.06;;;12.69;71.32
64158;BME280;50449;51.528;5.076;2023-02-18T14:57:52;101870.34;;;12.69;71.17
64158;BME280;50449;51.528;5.076;2023-02-18T15:00:22;101882.00;;;12.70;71.36
64158;BME280;50449;51.528;5.076;2023-02-18T15:02:52;101862.00;;;12.71;71.22
64158;BME280;50449;51.528;5.076;2023-02-18T15:05:23;101865.31;;;12.73;71.24
64158;BME280;50449;51.528;5.076;2023-02-18T15:10:51;101863.16;;;12.75;70.99
64158;BME280;50449;51.528;5.076;2023-02-18T15:13:29;101877.59;;;12.75;71.14
64158;BME280;50449;51.528;5.076;2023-02-18T15:15:59;101869.44;;;12.75;70.95
64158;BME280;50449;51.528;5.076;2023-02-18T15:18:42;101875.69;;;12.76;71.20
64158;BME280;50449;51.528;5.076;2023-02-18T15:21:19;101866.47;;;12.77;71.07
64158;BME280;50449;51.528;5.076;2023-02-18T15:23:46;101875.22;;;12.79;71.16
64158;BME280;50449;51.528;5.076;2023-02-18T15:26:15;101871.47;;;12.80;71.14
64158;BME280;50449;51.528;5.076;2023-02-18T15:28:53;101875.81;;;12.81;71.15
64158;BME280;50449;51.528;5.076;2023-02-18T15:31:24;101870.19;;;12.83;71.18
64158;BME280;50449;51.528;5.076;2023-02-18T15:33:51;101865.59;;;12.83;70.83
64158;BME280;50449;51.528;5.076;2023-02-18T15:36:16;101875.34;;;12.84;70.74